Valley, Nebraska
Current Conditions -  °F | °C
As of 8:35 AM on Thursday 29 Jan 2015 (Local Time) from KFET Reporting Station
Overcast Overcast  
Wind Chill: 27°   Ceiling: 2200
Heat Index: 37°   Visibility: 10mi
Dew Point: 29°   Wind: 21mph
Humidity: 72%   Direction: 330°NNW
Pressure: 30.32"   Gusts: 35mph
Location:  41.31°N, 96.35°W
Report Text: KFET 291435Z AUTO 33018G30KT 10SM OVC022 03/M02 A3032 RMK AO2 T00301016
Loading
Personal Weather Stations






























Interactive Weather Map New forecast layout! Learn more

10-Day Weather Forecast

Advertisements
Track Severe Weather on mobile